Time;durP1;ratioP1;P1;durP2;ratioP2;P2;SDS_P1;SDS_P2;PMS_P1;PMS_P2;Temp;Humidity;BMP_temperature;BMP_pressure;BME280_temperature;BME280_humidity;BME280_pressure;Samples;Min_cycle;Max_cycle;Signal;HPM_P1;HPM_P2
2023/10/21 00:00:09;;;;;;;4.53;4.43;;;;;;;-141.22;100.00;65034.22;5031085;28;20982;-40
2023/10/21 00:02:37;;;;;;;4.70;4.60;;;;;;;-141.22;100.00;65034.22;5030789;28;20967;-42
2023/10/21 00:05:06;;;;;;;5.57;5.07;;;;;;;-141.22;100.00;65034.22;5030611;28;20483;-41
2023/10/21 00:07:35;;;;;;;5.10;5.00;;;;;;;-141.22;100.00;65034.22;5030878;28;20651;-40
2023/10/21 00:10:05;;;;;;;5.97;5.67;;;;;;;-141.22;100.00;65034.22;5034500;28;20831;-42
2023/10/21 00:12:32;;;;;;;5.80;5.50;;;;;;;-141.22;100.00;65034.22;5034753;28;20464;-43
2023/10/21 00:15:00;;;;;;;6.63;6.43;;;;;;;-141.22;100.00;65034.22;5034658;28;20911;-42
2023/10/21 00:17:29;;;;;;;6.73;6.53;;;;;;;-141.22;100.00;65034.22;5035004;28;20452;-46
2023/10/21 00:19:56;;;;;;;5.40;5.20;;;;;;;-141.22;100.00;65034.22;5034844;28;20521;-41
2023/10/21 00:22:24;;;;;;;6.43;6.23;;;;;;;-141.22;100.00;65034.22;5034478;28;20982;-40
2023/10/21 00:24:53;;;;;;;5.90;5.70;;;;;;;-141.22;100.00;65034.22;5034481;28;20979;-41
2023/10/21 00:27:21;;;;;;;6.50;6.30;;;;;;;-141.22;100.00;65034.22;5034579;28;20458;-43
2023/10/21 00:29:49;;;;;;;6.00;5.73;;;;;;;-141.22;100.00;65034.22;5034912;28;21018;-42
2023/10/21 00:32:17;;;;;;;6.63;6.33;;;;;;;-141.22;100.00;65034.22;5034409;28;20567;-42
2023/10/21 00:34:44;;;;;;;6.23;6.00;;;;;;;-141.22;100.00;65034.22;5034435;28;20490;-42
2023/10/21 00:37:12;;;;;;;5.80;5.60;;;;;;;-141.22;100.00;65034.22;5034191;28;20472;-42
2023/10/21 00:39:40;;;;;;;6.00;5.80;;;;;;;-141.22;100.00;65034.22;5034561;28;20436;-44
2023/10/21 00:42:09;;;;;;;5.60;5.40;;;;;;;-141.22;100.00;65034.22;5034212;28;20517;-41
2023/10/21 00:44:37;;;;;;;6.07;5.87;;;;;;;-141.22;100.00;65034.22;5034504;28;20467;-43
2023/10/21 00:47:05;;;;;;;6.70;6.50;;;;;;;-141.22;100.00;65034.22;5033880;28;20440;-43
2023/10/21 00:49:33;;;;;;;5.77;5.60;;;;;;;-141.22;100.00;65034.22;5034816;28;20455;-41
2023/10/21 00:52:04;;;;;;;6.50;6.40;;;;;;;-141.22;100.00;65034.22;5034227;28;20479;-40
2023/10/21 00:54:32;;;;;;;5.33;5.13;;;;;;;-141.22;100.00;65034.22;5026740;28;20440;-40
2023/10/21 00:57:00;;;;;;;6.97;6.77;;;;;;;-141.22;100.00;65034.22;5034040;28;20436;-44
2023/10/21 00:59:29;;;;;;;5.30;5.20;;;;;;;-141.22;100.00;65034.22;5033797;28;20518;-41
2023/10/21 01:01:57;;;;;;;6.70;6.53;;;;;;;-141.22;100.00;65034.22;5033363;28;20431;-41
2023/10/21 01:04:25;;;;;;;6.30;6.10;;;;;;;-141.22;100.00;65034.22;5034087;28;20471;-43
2023/10/21 01:06:54;;;;;;;7.80;7.60;;;;;;;-141.22;100.00;65034.22;5033854;28;20515;-41
2023/10/21 01:09:22;;;;;;;7.20;7.00;;;;;;;-141.22;100.00;65034.22;5033907;28;20436;-40
2023/10/21 01:11:50;;;;;;;7.13;6.93;;;;;;;-141.22;100.00;65034.22;5034172;28;20421;-41
2023/10/21 01:14:18;;;;;;;7.33;7.07;;;;;;;-141.22;100.00;65034.22;5033443;28;20436;-40
2023/10/21 01:16:47;;;;;;;7.30;7.10;;;;;;;-141.22;100.00;65034.22;5033496;28;20474;-41
2023/10/21 01:19:15;;;;;;;7.70;7.50;;;;;;;-141.22;100.00;65034.22;5033750;28;20531;-46
2023/10/21 01:21:42;;;;;;;7.70;7.47;;;;;;;-141.22;100.00;65034.22;5033863;28;20464;-41
2023/10/21 01:24:11;;;;;;;7.87;7.60;;;;;;;-141.22;100.00;65034.22;5033338;28;20466;-41
2023/10/21 01:26:39;;;;;;;9.27;8.47;;;;;;;-141.22;100.00;65034.22;5033517;28;20956;-42
2023/10/21 01:29:09;;;;;;;7.70;7.50;;;;;;;-141.22;100.00;65034.22;5033627;28;20448;-40
2023/10/21 01:31:37;;;;;;;8.10;7.50;;;;;;;-141.22;100.00;65034.22;5033968;28;20490;-42
2023/10/21 01:34:05;;;;;;;7.87;7.60;;;;;;;-141.22;100.00;65034.22;5032932;28;20476;-38
2023/10/21 01:36:32;;;;;;;7.93;7.53;;;;;;;-141.22;100.00;65034.22;5033179;28;20435;-41
2023/10/21 01:39:01;;;;;;;7.40;7.20;;;;;;;-141.22;100.00;65034.22;5033158;28;20455;-42
2023/10/21 01:41:30;;;;;;;7.30;7.10;;;;;;;-141.22;100.00;65034.22;5033326;28;20432;-41
2023/10/21 01:43:58;;;;;;;7.20;6.93;;;;;;;-141.22;100.00;65034.22;5033043;28;20991;-44
2023/10/21 01:46:26;;;;;;;7.20;7.00;;;;;;;-141.22;100.00;65034.22;5033061;28;20570;-39
2023/10/21 01:48:54;;;;;;;7.30;6.90;;;;;;;-141.22;100.00;65034.22;5033370;28;20467;-42
2023/10/21 01:51:22;;;;;;;7.23;7.03;;;;;;;-141.22;100.00;65034.22;5033126;28;20486;-41
2023/10/21 01:53:50;;;;;;;7.47;7.27;;;;;;;-141.22;100.00;65034.22;5032576;28;20456;-41
2023/10/21 01:56:17;;;;;;;7.90;7.60;;;;;;;-141.22;100.00;65034.22;5033062;28;20439;-40
2023/10/21 01:58:46;;;;;;;7.60;7.40;;;;;;;-141.22;100.00;65034.22;5033155;28;20479;-41
2023/10/21 02:01:14;;;;;;;7.37;7.07;;;;;;;-141.22;100.00;65034.22;5033231;28;20475;-44
2023/10/21 02:03:42;;;;;;;7.70;7.40;;;;;;;-141.22;100.00;65034.22;5033047;28;20459;-40
2023/10/21 02:06:10;;;;;;;7.43;7.23;;;;;;;-141.22;100.00;65034.22;5032570;28;20472;-42
2023/10/21 02:08:38;;;;;;;7.70;7.40;;;;;;;-141.22;100.00;65034.22;5032980;28;20995;-40
2023/10/21 02:11:06;;;;;;;7.70;7.50;;;;;;;-141.22;100.00;65034.22;5033159;28;20436;-41
2023/10/21 02:13:34;;;;;;;7.70;7.50;;;;;;;-141.22;100.00;65034.22;5024671;28;20460;-43
2023/10/21 02:16:09;;;;;;;8.30;7.93;;;;;;;-141.22;100.00;65034.22;5032667;28;20428;-42
2023/10/21 02:18:37;;;;;;;8.30;7.97;;;;;;;-141.22;100.00;65034.22;5025346;28;20478;-40
2023/10/21 02:21:08;;;;;;;8.87;8.47;;;;;;;-141.22;100.00;65034.22;5032688;28;20432;-43
2023/10/21 02:23:36;;;;;;;8.43;8.13;;;;;;;-141.22;100.00;65034.22;5032294;28;20467;-40
2023/10/21 02:26:06;;;;;;;9.43;9.03;;;;;;;-141.22;100.00;65034.22;5032475;28;20468;-40
2023/10/21 02:28:34;;;;;;;8.97;8.67;;;;;;;-141.22;100.00;65034.22;5024655;28;20547;-42
2023/10/21 02:31:04;;;;;;;8.70;8.30;;;;;;;-141.22;100.00;65034.22;5031949;28;20482;-40
2023/10/21 02:33:32;;;;;;;9.07;8.57;;;;;;;-141.22;100.00;65034.22;5031780;28;20944;-41
2023/10/21 02:36:00;;;;;;;8.40;8.00;;;;;;;-141.22;100.00;65034.22;5032124;28;20464;-42
2023/10/21 02:38:27;;;;;;;7.80;7.60;;;;;;;-141.22;100.00;65034.22;5032374;28;20456;-41
2023/10/21 02:40:55;;;;;;;8.70;8.30;;;;;;;-141.22;100.00;65034.22;5032510;28;21015;-42
2023/10/21 02:43:23;;;;;;;8.47;8.17;;;;;;;-141.22;100.00;65034.22;5031781;28;20456;-42
2023/10/21 02:45:50;;;;;;;8.27;7.90;;;;;;;-141.22;100.00;65034.22;5031754;28;20472;-43
2023/10/21 02:48:19;;;;;;;8.40;7.90;;;;;;;-141.22;100.00;65034.22;5031823;28;20464;-39
2023/10/21 02:50:48;;;;;;;8.53;8.23;;;;;;;-141.22;100.00;65034.22;5032331;28;20428;-42
2023/10/21 02:53:16;;;;;;;9.03;8.57;;;;;;;-141.22;100.00;65034.22;5031689;28;20456;-43
2023/10/21 02:55:43;;;;;;;9.50;9.10;;;;;;;-141.22;100.00;65034.22;5031905;28;20428;-44
2023/10/21 02:58:11;;;;;;;9.47;8.97;;;;;;;-141.22;100.00;65034.22;5031748;28;20457;-42
2023/10/21 03:00:40;;;;;;;9.67;9.07;;;;;;;-141.22;100.00;65034.22;5032255;28;20441;-44
2023/10/21 03:03:08;;;;;;;9.43;8.90;;;;;;;-141.22;100.00;65034.22;5031560;28;20462;-43
2023/10/21 03:05:40;;;;;;;9.97;9.47;;;;;;;-141.22;100.00;65034.22;5031852;28;20472;-44
2023/10/21 03:08:09;;;;;;;10.00;9.47;;;;;;;-141.22;100.00;65034.22;5031835;28;20452;-39
2023/10/21 03:10:37;;;;;;;10.97;10.17;;;;;;;-141.22;100.00;65034.22;5031858;28;20436;-41
2023/10/21 03:13:05;;;;;;;10.47;9.87;;;;;;;-141.22;100.00;65034.22;5031104;28;20836;-42
2023/10/21 03:15:34;;;;;;;11.80;11.10;;;;;;;-141.22;100.00;65034.22;5031400;28;20460;-41
2023/10/21 03:18:02;;;;;;;10.33;9.90;;;;;;;-141.22;100.00;65034.22;5031638;28;20919;-40
2023/10/21 03:20:32;;;;;;;11.03;10.33;;;;;;;-141.22;100.00;65034.22;5031665;28;20432;-41
2023/10/21 03:23:03;;;;;;;10.90;10.00;;;;;;;-141.22;100.00;65034.22;5031488;28;20460;-43
2023/10/21 03:25:31;;;;;;;11.00;10.30;;;;;;;-141.22;100.00;65034.22;5031183;28;20804;-41
2023/10/21 03:27:58;;;;;;;10.27;9.67;;;;;;;-141.22;100.00;65034.22;5031581;28;21013;-41
2023/10/21 03:30:26;;;;;;;10.60;10.07;;;;;;;-141.22;100.00;65034.22;5031670;28;20440;-45
2023/10/21 03:32:55;;;;;;;10.60;9.70;;;;;;;-141.22;100.00;65034.22;5031231;28;20487;-46
2023/10/21 03:35:22;;;;;;;11.47;10.43;;;;;;;-141.22;100.00;65034.22;5031018;28;20440;-42
2023/10/21 03:37:50;;;;;;;11.67;10.50;;;;;;;-141.22;100.00;65034.22;5031187;28;20483;-46
2023/10/21 03:40:19;;;;;;;11.10;10.50;;;;;;;-141.22;100.00;65034.22;5031764;28;20496;-41
2023/10/21 03:42:47;;;;;;;11.80;10.67;;;;;;;-141.22;100.00;65034.22;5030608;28;20551;-41
2023/10/21 03:45:14;;;;;;;11.40;10.47;;;;;;;-141.22;100.00;65034.22;5030919;28;20439;-39
2023/10/21 03:47:42;;;;;;;10.70;10.00;;;;;;;-141.22;100.00;65034.22;5031204;28;20472;-44
2023/10/21 03:50:10;;;;;;;10.77;10.17;;;;;;;-141.22;100.00;65034.22;5031308;28;20945;-40
2023/10/21 03:52:39;;;;;;;11.10;10.40;;;;;;;-141.22;100.00;65034.22;5030806;28;20484;-44
2023/10/21 03:55:09;;;;;;;10.23;9.63;;;;;;;-141.22;100.00;65034.22;5031284;28;20503;-40
2023/10/21 03:57:38;;;;;;;10.43;9.73;;;;;;;-141.22;100.00;65034.22;5031099;28;21026;-42
2023/10/21 04:00:07;;;;;;;9.80;9.20;;;;;;;-141.22;100.00;65034.22;5031312;28;20436;-41
2023/10/21 04:02:35;;;;;;;9.70;9.27;;;;;;;-141.22;100.00;65034.22;5030768;28;20483;-41
2023/10/21 04:05:06;;;;;;;10.00;9.50;;;;;;;-141.22;100.00;65034.22;5030792;28;20486;-41
2023/10/21 04:07:34;;;;;;;10.17;9.53;;;;;;;-141.22;100.00;65034.22;5031264;28;20585;-40
2023/10/21 04:10:02;;;;;;;11.40;10.40;;;;;;;-141.22;100.00;65034.22;5031116;28;20955;-40
2023/10/21 04:12:30;;;;;;;11.33;10.73;;;;;;;-141.22;100.00;65034.22;5030159;28;20543;-40
2023/10/21 04:14:59;;;;;;;13.57;12.53;;;;;;;-141.22;100.00;65034.22;5030690;28;20523;-40
2023/10/21 04:17:27;;;;;;;11.37;10.67;;;;;;;-141.22;100.00;65034.22;5030726;28;20452;-40
2023/10/21 04:19:54;;;;;;;11.93;11.13;;;;;;;-141.22;100.00;65034.22;5031116;28;20424;-40
2023/10/21 04:22:22;;;;;;;12.50;11.60;;;;;;;-141.22;100.00;65034.22;5030334;28;21044;-40
2023/10/21 04:24:50;;;;;;;13.17;11.87;;;;;;;-141.22;100.00;65034.22;5031015;28;20442;-40
2023/10/21 04:27:17;;;;;;;13.90;12.90;;;;;;;-141.22;100.00;65034.22;5030706;28;20478;-40
2023/10/21 04:29:46;;;;;;;13.07;12.20;;;;;;;-141.22;100.00;65034.22;5031224;28;20464;-42
2023/10/21 04:32:15;;;;;;;13.37;12.40;;;;;;;-141.22;100.00;65034.22;5030439;28;20538;-43
2023/10/21 04:34:42;;;;;;;14.77;13.67;;;;;;;-141.22;100.00;65034.22;5023426;28;20439;-40
2023/10/21 04:37:10;;;;;;;15.00;13.60;;;;;;;-141.22;100.00;65034.22;5030605;28;20902;-40
2023/10/21 04:39:39;;;;;;;15.13;13.80;;;;;;;-141.22;100.00;65034.22;5030912;28;20428;-42
2023/10/21 04:42:07;;;;;;;13.70;12.50;;;;;;;-141.22;100.00;65034.22;5030611;28;20444;-40
2023/10/21 04:44:35;;;;;;;14.57;13.47;;;;;;;-141.22;100.00;65034.22;5030598;28;20444;-41
2023/10/21 04:47:03;;;;;;;15.67;14.30;;;;;;;-141.22;100.00;65034.22;5030312;28;20472;-43
2023/10/21 04:49:32;;;;;;;14.63;13.13;;;;;;;-141.22;100.00;65034.22;5030854;28;20531;-41
2023/10/21 04:52:00;;;;;;;17.10;15.00;;;;;;;-141.22;100.00;65034.22;5030232;28;20459;-42
2023/10/21 04:54:28;;;;;;;16.30;14.97;;;;;;;-141.22;100.00;65034.22;5031289;28;20515;-40
2023/10/21 04:56:55;;;;;;;17.40;15.10;;;;;;;-141.22;100.00;65034.22;5033917;28;20428;-41
2023/10/21 04:59:23;;;;;;;15.80;14.50;;;;;;;-141.22;100.00;65034.22;5033982;28;20927;-40
2023/10/21 05:01:51;;;;;;;18.97;15.70;;;;;;;-141.22;100.00;65034.22;5034345;28;20435;-40
2023/10/21 05:04:19;;;;;;;16.07;14.47;;;;;;;-141.22;100.00;65034.22;5033763;28;20864;-40
2023/10/21 05:06:48;;;;;;;16.27;14.77;;;;;;;-141.22;100.00;65034.22;5034045;28;20471;-40
2023/10/21 05:09:16;;;;;;;18.10;16.37;;;;;;;-141.22;100.00;65034.22;5033891;28;20436;-41
2023/10/21 05:11:44;;;;;;;17.47;15.60;;;;;;;-141.22;100.00;65034.22;5033890;28;20436;-40
2023/10/21 05:14:11;;;;;;;16.93;15.20;;;;;;;-141.22;100.00;65034.22;5033284;28;21011;-43
2023/10/21 05:16:39;;;;;;;19.27;16.47;;;;;;;-141.22;100.00;65034.22;5033961;28;20449;-40
2023/10/21 05:19:07;;;;;;;19.00;16.10;;;;;;;-141.22;100.00;65034.22;5033794;28;20451;-42
2023/10/21 05:21:35;;;;;;;18.33;16.63;;;;;;;-141.22;100.00;65034.22;5034050;28;20438;-40
2023/10/21 05:24:04;;;;;;;19.30;17.37;;;;;;;-141.22;100.00;65034.22;5033282;28;21034;-40
2023/10/21 05:26:32;;;;;;;20.00;17.87;;;;;;;-141.22;100.00;65034.22;5033005;28;20932;-40
2023/10/21 05:29:00;;;;;;;18.00;16.27;;;;;;;-141.22;100.00;65034.22;5034065;28;20539;-40
2023/10/21 05:31:29;;;;;;;18.60;16.70;;;;;;;-141.22;100.00;65034.22;5033783;28;20456;-41
2023/10/21 05:33:57;;;;;;;17.17;15.50;;;;;;;-141.22;100.00;65034.22;5033373;28;20534;-40
2023/10/21 05:36:25;;;;;;;17.27;15.53;;;;;;;-141.22;100.00;65034.22;5033373;28;20817;-40
2023/10/21 05:38:53;;;;;;;17.10;15.40;;;;;;;-141.22;100.00;65034.22;5033401;28;20467;-40
2023/10/21 05:41:23;;;;;;;18.00;16.20;;;;;;;-141.22;100.00;65034.22;5033830;28;20440;-40
2023/10/21 05:43:51;;;;;;;17.40;15.80;;;;;;;-141.22;100.00;65034.22;5033126;28;20463;-40
2023/10/21 05:46:19;;;;;;;19.73;17.80;;;;;;;-141.22;100.00;65034.22;5033289;28;20432;-39
2023/10/21 05:48:47;;;;;;;20.43;18.30;;;;;;;-141.22;100.00;65034.22;5033324;28;20897;-41
2023/10/21 05:51:15;;;;;;;21.37;18.40;;;;;;;-141.22;100.00;65034.22;5033485;28;20459;-40
2023/10/21 05:53:42;;;;;;;19.10;17.10;;;;;;;-141.22;100.00;65034.22;5032734;28;20463;-39
2023/10/21 05:56:12;;;;;;;19.67;17.77;;;;;;;-141.22;100.00;65034.22;5033281;28;20497;-40
2023/10/21 05:58:42;;;;;;;20.20;17.87;;;;;;;-141.22;100.00;65034.22;5033226;28;20444;-40
2023/10/21 06:01:11;;;;;;;24.17;19.70;;;;;;;-141.22;100.00;65034.22;5033272;28;20951;-42
2023/10/21 06:03:39;;;;;;;19.00;17.13;;;;;;;-141.22;100.00;65034.22;5032030;28;20564;-39
2023/10/21 06:06:07;;;;;;;22.90;17.10;;;;;;;-141.22;100.00;65034.22;5031449;28;20435;-43
2023/10/21 06:08:35;;;;;;;20.33;17.77;;;;;;;-141.22;100.00;65034.22;5033077;28;20503;-40
2023/10/21 06:11:03;;;;;;;27.73;19.53;;;;;;;-141.22;100.00;65034.22;5032888;28;20440;-40
2023/10/21 06:13:30;;;;;;;22.80;17.73;;;;;;;-141.22;100.00;65034.22;5032516;28;20542;-40
2023/10/21 06:15:59;;;;;;;22.63;17.37;;;;;;;-141.22;100.00;65034.22;5032657;28;20851;-42
2023/10/21 06:18:27;;;;;;;23.37;18.67;;;;;;;-141.22;100.00;65034.22;5032390;28;20526;-39
2023/10/21 06:20:55;;;;;;;29.60;19.00;;;;;;;-141.22;100.00;65034.22;5032259;28;20440;-39
2023/10/21 06:23:23;;;;;;;20.50;18.40;;;;;;;-141.22;100.00;65034.22;5032102;28;20551;-39
2023/10/21 06:25:51;;;;;;;22.93;18.70;;;;;;;-141.22;100.00;65034.22;5032465;28;20520;-42
2023/10/21 06:28:19;;;;;;;30.00;18.43;;;;;;;-141.22;100.00;65034.22;5032703;28;20478;-40
2023/10/21 06:30:47;;;;;;;26.80;19.80;;;;;;;-141.22;100.00;65034.22;5024421;28;20806;-40
2023/10/21 06:33:16;;;;;;;28.50;20.00;;;;;;;-141.22;100.00;65034.22;5031833;28;20470;-40
2023/10/21 06:35:44;;;;;;;31.13;20.23;;;;;;;-141.22;100.00;65034.22;5032207;28;20435;-40
2023/10/21 06:38:12;;;;;;;23.70;17.93;;;;;;;-141.22;100.00;65034.22;5032522;28;20854;-39
2023/10/21 06:40:40;;;;;;;22.97;18.23;;;;;;;-141.22;100.00;65034.22;5032491;28;20851;-40
2023/10/21 06:43:18;;;;;;;28.77;21.00;;;;;;;-141.22;100.00;65034.22;5027634;28;20476;-40
2023/10/21 06:45:46;;;;;;;21.80;18.67;;;;;;;-141.22;100.00;65034.22;5030342;28;20432;-39
2023/10/21 06:48:16;;;;;;;25.80;19.50;;;;;;;-141.22;100.00;65034.22;5031978;28;20483;-40
2023/10/21 06:50:45;;;;;;;25.87;18.47;;;;;;;-141.22;100.00;65034.22;5032068;28;20446;-40
2023/10/21 06:53:13;;;;;;;25.13;18.20;;;;;;;-141.22;100.00;65034.22;5031722;28;20874;-40
2023/10/21 06:55:42;;;;;;;18.93;16.10;;;;;;;-141.22;100.00;65034.22;5031678;28;20436;-39
2023/10/21 06:58:10;;;;;;;22.80;17.67;;;;;;;-141.22;100.00;65034.22;5032396;28;20884;-40
2023/10/21 07:00:38;;;;;;;22.23;18.80;;;;;;;-141.22;100.00;65034.22;5032310;28;20432;-40
2023/10/21 07:03:06;;;;;;;22.13;19.60;;;;;;;-141.22;100.00;65034.22;5031572;28;21001;-39
2023/10/21 07:05:36;;;;;;;21.30;18.40;;;;;;;-141.22;100.00;65034.22;5031650;28;20432;-39
2023/10/21 07:08:05;;;;;;;26.83;17.57;;;;;;;-141.22;100.00;65034.22;5031978;28;20476;-39
2023/10/21 07:10:33;;;;;;;25.30;17.93;;;;;;;-141.22;100.00;65034.22;5031814;28;21218;-40
2023/10/21 07:13:01;;;;;;;24.50;17.43;;;;;;;-141.22;100.00;65034.22;5031539;28;20483;-40
2023/10/21 07:15:31;;;;;;;21.63;17.90;;;;;;;-141.22;100.00;65034.22;5031458;28;20523;-42
2023/10/21 07:17:58;;;;;;;21.57;18.57;;;;;;;-141.22;100.00;65034.22;5031675;28;20456;-39
2023/10/21 07:20:27;;;;;;;26.10;19.10;;;;;;;-141.22;100.00;65034.22;5031776;28;20505;-41
2023/10/21 07:22:56;;;;;;;19.53;17.33;;;;;;;-141.22;100.00;65034.22;5031332;28;20460;-39
2023/10/21 07:25:24;;;;;;;22.27;18.67;;;;;;;-141.22;100.00;65034.22;5031299;28;20966;-40
2023/10/21 07:27:52;;;;;;;19.80;17.80;;;;;;;-141.22;100.00;65034.22;5031893;28;20483;-39
2023/10/21 07:30:23;;;;;;;28.07;19.10;;;;;;;-141.22;100.00;65034.22;5031773;28;20436;-40
2023/10/21 07:32:51;;;;;;;21.37;17.87;;;;;;;-141.22;100.00;65034.22;5023629;28;20463;-40
2023/10/21 07:35:19;;;;;;;22.10;17.67;;;;;;;-141.22;100.00;65034.22;5031404;28;20432;-39
2023/10/21 07:37:47;;;;;;;20.30;18.30;;;;;;;-141.22;100.00;65034.22;5031407;28;20464;-43
2023/10/21 07:40:16;;;;;;;24.43;18.07;;;;;;;-141.22;100.00;65034.22;5031690;28;20482;-44
2023/10/21 07:42:43;;;;;;;18.40;16.40;;;;;;;-141.22;100.00;65034.22;5030937;28;21003;-41
2023/10/21 07:45:14;;;;;;;21.30;19.10;;;;;;;-141.22;100.00;65034.22;5031170;28;20436;-41
2023/10/21 07:47:42;;;;;;;18.13;16.57;;;;;;;-141.22;100.00;65034.22;5031034;28;20463;-44
2023/10/21 07:50:13;;;;;;;21.00;17.80;;;;;;;-141.22;100.00;65034.22;5031289;28;20433;-41
2023/10/21 07:52:41;;;;;;;21.20;18.50;;;;;;;-141.22;100.00;65034.22;5030953;28;20824;-44
2023/10/21 07:55:12;;;;;;;19.93;17.23;;;;;;;-141.22;100.00;65034.22;5031317;28;20880;-41
2023/10/21 07:57:41;;;;;;;18.97;17.03;;;;;;;-141.22;100.00;65034.22;5031289;28;20862;-45
2023/10/21 08:00:13;;;;;;;21.83;17.53;;;;;;;-141.22;100.00;65034.22;5031417;28;20486;-42
2023/10/21 08:02:41;;;;;;;18.63;16.77;;;;;;;-141.22;100.00;65034.22;5030743;28;20460;-41
2023/10/21 08:05:09;;;;;;;26.33;18.13;;;;;;;-141.22;100.00;65034.22;5031173;28;20515;-42
2023/10/21 08:07:37;;;;;;;19.13;16.63;;;;;;;-141.22;100.00;65034.22;5031026;28;20531;-40
2023/10/21 08:10:05;;;;;;;23.93;18.47;;;;;;;-141.22;100.00;65034.22;5031300;28;20472;-42
2023/10/21 08:12:33;;;;;;;20.87;16.27;;;;;;;-141.22;100.00;65034.22;5030696;28;20456;-42
2023/10/21 08:15:07;;;;;;;19.03;16.83;;;;;;;-141.22;100.00;65034.22;5030864;28;20444;-41
2023/10/21 08:17:35;;;;;;;21.63;17.93;;;;;;;-141.22;100.00;65034.22;5031390;28;20455;-44
2023/10/21 08:20:04;;;;;;;22.47;17.60;;;;;;;-141.22;100.00;65034.22;5031324;28;20424;-41
2023/10/21 08:22:33;;;;;;;21.17;18.73;;;;;;;-141.22;100.00;65034.22;5030568;28;20491;-41
2023/10/21 08:25:01;;;;;;;22.33;19.97;;;;;;;-141.22;100.00;65034.22;5030972;28;20837;-40
2023/10/21 08:27:29;;;;;;;21.03;18.83;;;;;;;-141.22;100.00;65034.22;5030784;28;20452;-40
2023/10/21 08:29:59;;;;;;;25.40;19.43;;;;;;;-141.22;100.00;65034.22;5032806;28;20472;-44
2023/10/21 08:32:28;;;;;;;24.63;18.97;;;;;;;-141.22;100.00;65034.22;5034616;28;20879;-40
2023/10/21 08:34:57;;;;;;;24.00;18.67;;;;;;;-141.22;100.00;65034.22;5034736;28;20438;-41
2023/10/21 08:37:24;;;;;;;23.03;20.63;;;;;;;-141.22;100.00;65034.22;5034864;28;21120;-40
2023/10/21 08:39:52;;;;;;;24.70;20.30;;;;;;;-141.22;100.00;65034.22;5034812;28;20982;-41
2023/10/21 08:42:25;;;;;;;26.67;20.43;;;;;;;-141.22;100.00;65034.22;5034224;28;20478;-40
2023/10/21 08:45:14;;;;;;;27.57;19.10;;;;;;;-141.22;100.00;65034.22;5029027;28;20432;-41
2023/10/21 08:47:45;;;;;;;24.53;18.40;;;;;;;-141.22;100.00;65034.22;5034722;28;20467;-39
2023/10/21 08:50:14;;;;;;;24.60;19.70;;;;;;;-141.22;100.00;65034.22;5034559;28;20479;-40
2023/10/21 08:52:42;;;;;;;20.93;18.30;;;;;;;-141.22;100.00;65034.22;5033925;28;20464;-41
2023/10/21 08:55:11;;;;;;;22.60;18.10;;;;;;;-141.22;100.00;65034.22;5034154;28;20432;-40
2023/10/21 08:57:40;;;;;;;27.10;19.30;;;;;;;-141.22;100.00;65034.22;5034204;28;20559;-41
2023/10/21 09:00:10;;;;;;;24.77;18.77;;;;;;;-141.22;100.00;65034.22;5034509;28;20591;-39
2023/10/21 09:02:38;;;;;;;21.33;19.10;;;;;;;-141.22;100.00;65034.22;5033817;28;20463;-40
2023/10/21 09:05:11;;;;;;;22.17;19.60;;;;;;;-141.22;100.00;65034.22;5034042;28;20454;-43
2023/10/21 09:07:46;;;;;;;27.83;20.10;;;;;;;-141.22;100.00;65034.22;5034339;28;20458;-43
2023/10/21 09:10:15;;;;;;;24.23;18.30;;;;;;;-141.22;100.00;65034.22;5034145;28;21006;-42
2023/10/21 09:12:43;;;;;;;22.27;19.87;;;;;;;-141.22;100.00;65034.22;5033840;28;20859;-41
2023/10/21 09:15:12;;;;;;;23.43;19.47;;;;;;;-141.22;100.00;65034.22;5034104;28;20835;-44
2023/10/21 09:17:44;;;;;;;23.23;19.00;;;;;;;-141.22;100.00;65034.22;5033684;28;20463;-41
2023/10/21 09:20:15;;;;;;;28.37;21.13;;;;;;;-141.22;100.00;65034.22;5034130;28;20435;-40
2023/10/21 09:22:45;;;;;;;21.83;19.10;;;;;;;-141.22;100.00;65034.22;5033545;28;20459;-39
2023/10/21 09:25:16;;;;;;;23.00;19.10;;;;;;;-141.22;100.00;65034.22;5033586;28;20438;-40
2023/10/21 09:27:44;;;;;;;30.80;21.77;;;;;;;-141.22;100.00;65034.22;5033700;28;20460;-43
2023/10/21 09:30:17;;;;;;;23.20;18.50;;;;;;;-141.22;100.00;65034.22;5033729;28;20468;-39
2023/10/21 09:32:46;;;;;;;21.13;17.87;;;;;;;-141.22;100.00;65034.22;5033381;28;20487;-41
2023/10/21 09:35:21;;;;;;;29.33;18.67;;;;;;;-141.22;100.00;65034.22;5033504;28;20523;-40
2023/10/21 09:37:49;;;;;;;20.97;18.97;;;;;;;-141.22;100.00;65034.22;5033560;28;20539;-45
2023/10/21 09:40:17;;;;;;;21.43;19.20;;;;;;;-141.22;100.00;65034.22;5033340;28;20471;-41
2023/10/21 09:42:48;;;;;;;19.93;17.83;;;;;;;-141.22;100.00;65034.22;5033111;28;20470;-45
2023/10/21 09:45:18;;;;;;;22.40;20.27;;;;;;;-141.22;100.00;65034.22;5033558;28;20436;-40
2023/10/21 09:47:46;;;;;;;22.23;19.50;;;;;;;-141.22;100.00;65034.22;5033303;28;20456;-40
2023/10/21 09:50:16;;;;;;;23.63;21.10;;;;;;;-141.22;100.00;65034.22;5033381;28;20471;-40
2023/10/21 09:52:51;;;;;;;22.67;20.40;;;;;;;-141.22;100.00;65034.22;5033014;28;20530;-40
2023/10/21 09:55:24;;;;;;;22.00;19.43;;;;;;;-141.22;100.00;65034.22;5033026;28;20459;-40
2023/10/21 09:57:54;;;;;;;22.07;19.67;;;;;;;-141.22;100.00;65034.22;5033098;28;20519;-42
2023/10/21 10:00:24;;;;;;;23.87;21.33;;;;;;;-141.22;100.00;65034.22;5033327;28;20936;-40
2023/10/21 10:02:54;;;;;;;21.90;19.80;;;;;;;-141.22;100.00;65034.22;5032802;28;20483;-42
2023/10/21 10:05:24;;;;;;;22.50;20.07;;;;;;;-141.22;100.00;65034.22;5032887;28;20432;-42
2023/10/21 10:07:52;;;;;;;23.87;21.27;;;;;;;-141.22;100.00;65034.22;5032920;28;20947;-41
2023/10/21 10:10:25;;;;;;;22.83;20.40;;;;;;;-141.22;100.00;65034.22;5033200;28;20468;-45
2023/10/21 10:12:56;;;;;;;21.80;19.70;;;;;;;-141.22;100.00;65034.22;5032683;28;20459;-42
2023/10/21 10:15:34;;;;;;;20.87;19.07;;;;;;;-141.22;100.00;65034.22;5032877;28;20446;-39
2023/10/21 10:18:03;;;;;;;21.67;19.37;;;;;;;-141.22;100.00;65034.22;5032747;28;20855;-42
2023/10/21 10:20:33;;;;;;;21.00;18.80;;;;;;;-141.22;100.00;65034.22;5032805;28;20463;-42
2023/10/21 10:23:03;;;;;;;20.73;18.20;;;;;;;-141.22;100.00;65034.22;5032540;28;20541;-44
2023/10/21 10:25:32;;;;;;;20.33;18.43;;;;;;;-141.22;100.00;65034.22;5032592;28;20425;-40
2023/10/21 10:28:07;;;;;;;19.80;17.90;;;;;;;-141.22;100.00;65034.22;5024924;28;20484;-40
2023/10/21 10:30:36;;;;;;;19.33;17.57;;;;;;;-141.22;100.00;65034.22;5032413;28;21030;-41
2023/10/21 10:33:07;;;;;;;18.87;17.03;;;;;;;-141.22;100.00;65034.22;5032061;28;20559;-40
2023/10/21 10:35:40;;;;;;;18.63;16.90;;;;;;;-141.22;100.00;65034.22;5032514;28;20420;-39
2023/10/21 10:38:24;;;;;;;20.73;17.37;;;;;;;-141.22;100.00;65034.22;5032530;28;21077;-44
2023/10/21 10:40:55;;;;;;;19.67;17.67;;;;;;;-141.22;100.00;65034.22;5032339;28;20494;-40
2023/10/21 10:43:23;;;;;;;18.13;16.53;;;;;;;-141.22;100.00;65034.22;5031938;28;21221;-44
2023/10/21 10:45:51;;;;;;;18.13;16.43;;;;;;;-141.22;100.00;65034.22;5032083;28;20490;-42
2023/10/21 10:48:19;;;;;;;18.13;16.43;;;;;;;-141.22;100.00;65034.22;5032201;28;20470;-40
2023/10/21 10:50:48;;;;;;;18.00;16.33;;;;;;;-141.22;100.00;65034.22;5032153;28;20476;-40
2023/10/21 10:53:17;;;;;;;19.00;17.13;;;;;;;-141.22;100.00;65034.22;5030806;28;20543;-41
2023/10/21 10:55:48;;;;;;;18.20;16.70;;;;;;;-141.22;100.00;65034.22;5032047;28;20435;-41
2023/10/21 10:58:18;;;;;;;16.43;15.13;;;;;;;-141.22;100.00;65034.22;5032112;28;20458;-40
2023/10/21 11:00:47;;;;;;;17.43;16.03;;;;;;;-141.22;100.00;65034.22;5032089;28;20436;-40
2023/10/21 11:03:24;;;;;;;18.17;16.50;;;;;;;-141.22;100.00;65034.22;5031949;28;20462;-40
2023/10/21 11:05:56;;;;;;;19.03;17.20;;;;;;;-141.22;100.00;65034.22;5031515;28;20436;-41